createdAt,value
2019-01-31T00:01:27.847Z,23.05
2019-01-31T00:04:25.941Z,20.62
2019-01-31T00:07:36.386Z,27.40
2019-01-31T00:10:49.001Z,21.77
2019-01-31T00:13:59.587Z,20.88
2019-01-31T00:17:00.282Z,36.90
2019-01-31T00:20:06.183Z,24.43
2019-01-31T00:22:52.163Z,18.75
2019-01-31T00:26:12.792Z,20.75
2019-01-31T00:29:02.046Z,21.12
2019-01-31T00:32:21.610Z,23.73
2019-01-31T00:35:36.278Z,20.43
2019-01-31T00:38:24.125Z,28.70
2019-01-31T00:41:24.946Z,23.83
2019-01-31T00:44:23.062Z,27.22
2019-01-31T00:47:35.596Z,28.85
2019-01-31T00:50:49.194Z,24.50
2019-01-31T00:53:25.248Z,17.65
2019-01-31T00:56:17.181Z,20.05
2019-01-31T00:59:37.486Z,19.95
2019-01-31T01:02:35.065Z,21.27
2019-01-31T01:05:35.993Z,22.52
2019-01-31T01:08:23.459Z,26.05
2019-01-31T01:11:28.730Z,22.77
2019-01-31T01:14:15.354Z,23.45
2019-01-31T01:17:09.041Z,18.10
2019-01-31T01:19:50.045Z,34.78
2019-01-31T01:23:09.150Z,29.50
2019-01-31T01:26:09.023Z,23.83
2019-01-31T01:29:11.674Z,23.45
2019-01-31T01:32:18.413Z,31.65
2019-01-31T01:35:15.373Z,21.80
2019-01-31T01:38:17.386Z,23.15
2019-01-31T01:41:15.772Z,18.10
2019-01-31T01:44:05.952Z,20.60
2019-01-31T01:46:58.509Z,28.80
2019-01-31T01:49:38.067Z,21.62
2019-01-31T01:52:35.212Z,18.57
2019-01-31T01:55:16.830Z,26.23
2019-01-31T01:58:00.642Z,19.00
2019-01-31T02:01:19.913Z,34.48
2019-01-31T02:04:34.816Z,21.57
2019-01-31T02:07:22.031Z,20.57
2019-01-31T02:10:34.088Z,32.20
2019-01-31T02:13:56.429Z,24.20
2019-01-31T02:16:46.027Z,20.35
2019-01-31T02:19:41.974Z,28.80
2019-01-31T02:23:04.096Z,21.68
2019-01-31T02:25:46.047Z,23.42
2019-01-31T02:28:38.411Z,25.52
2019-01-31T02:31:22.216Z,21.73
2019-01-31T02:34:21.801Z,23.05
2019-01-31T02:37:26.874Z,19.90
2019-01-31T02:40:52.420Z,22.98
2019-01-31T02:43:52.407Z,33.98
2019-01-31T02:46:45.353Z,25.85
2019-01-31T02:49:37.434Z,22.27
2019-01-31T02:52:29.921Z,28.85
2019-01-31T02:55:55.052Z,23.65
2019-01-31T02:59:11.501Z,20.43
2019-01-31T03:02:20.481Z,22.42
2019-01-31T03:05:29.468Z,23.27
2019-01-31T03:08:26.566Z,23.22
2019-01-31T03:11:08.145Z,25.23
2019-01-31T03:13:46.072Z,31.30
2019-01-31T03:16:50.455Z,25.12
2019-01-31T03:19:57.175Z,23.90
2019-01-31T03:22:56.835Z,27.55
2019-01-31T03:25:44.896Z,26.52
2019-01-31T03:28:51.101Z,28.10
2019-01-31T03:31:50.631Z,27.58
2019-01-31T03:34:47.417Z,28.52
2019-01-31T03:37:46.749Z,31.87
2019-01-31T03:40:44.802Z,34.40
2019-01-31T03:43:29.990Z,31.87
2019-01-31T03:46:42.094Z,28.17
2019-01-31T03:49:27.696Z,41.37
2019-01-31T03:52:38.197Z,31.17
2019-01-31T03:55:31.242Z,45.35
2019-01-31T03:58:39.082Z,34.13
2019-01-31T04:01:49.489Z,29.45
2019-01-31T04:04:23.674Z,30.70
2019-01-31T04:06:52.875Z,32.63
2019-01-31T04:09:22.266Z,29.45
2019-01-31T04:11:51.440Z,34.98
2019-01-31T04:14:21.752Z,40.50
2019-01-31T04:16:50.928Z,33.73
2019-01-31T04:19:20.185Z,35.95
2019-01-31T04:21:50.482Z,26.93
2019-01-31T04:24:19.816Z,32.67
2019-01-31T04:26:49.074Z,36.08
2019-01-31T04:29:18.423Z,31.35
2019-01-31T04:31:47.598Z,30.68
2019-01-31T04:34:16.831Z,35.23
2019-01-31T04:36:46.111Z,36.13
2019-01-31T04:39:15.305Z,38.95
2019-01-31T04:41:44.542Z,44.35
2019-01-31T04:44:13.750Z,33.80
2019-01-31T04:46:43.018Z,35.23
2019-01-31T04:49:12.191Z,34.88
2019-01-31T04:51:41.395Z,32.35
2019-01-31T04:54:10.799Z,40.25
2019-01-31T04:56:40.056Z,33.70
2019-01-31T04:59:09.648Z,36.68
2019-01-31T05:01:38.834Z,37.48
2019-01-31T05:04:08.080Z,39.03
2019-01-31T05:06:37.377Z,33.73
2019-01-31T05:09:08.155Z,29.85
2019-01-31T05:11:37.336Z,33.33
2019-01-31T05:14:06.547Z,38.30
2019-01-31T05:16:35.806Z,33.35
2019-01-31T05:19:04.975Z,30.48
2019-01-31T05:21:37.179Z,36.10
2019-01-31T05:24:06.369Z,27.32
2019-01-31T05:26:35.616Z,31.15
2019-01-31T05:29:04.812Z,36.55
2019-01-31T05:31:33.994Z,42.45
2019-01-31T05:34:03.240Z,41.50
2019-01-31T05:36:32.694Z,36.50
2019-01-31T05:39:01.919Z,30.27
2019-01-31T05:41:31.105Z,34.63
2019-01-31T05:44:00.313Z,43.10
2019-01-31T05:46:29.562Z,33.90
2019-01-31T05:48:58.810Z,29.92
2019-01-31T05:51:28.080Z,29.05
2019-01-31T05:53:57.341Z,28.05
2019-01-31T05:56:26.605Z,25.85
2019-01-31T05:58:55.822Z,37.63
2019-01-31T06:01:25.149Z,44.58
2019-01-31T06:03:54.329Z,25.17
2019-01-31T06:06:23.606Z,34.20
2019-01-31T06:08:52.793Z,71.95
2019-01-31T06:11:22.039Z,33.45
2019-01-31T06:13:51.238Z,28.30
2019-01-31T06:16:20.443Z,28.92
2019-01-31T06:18:49.697Z,31.33
2019-01-31T06:21:19.053Z,29.30
2019-01-31T06:23:48.234Z,25.95
2019-01-31T06:26:17.567Z,28.45
2019-01-31T06:28:46.768Z,46.48
2019-01-31T06:31:15.957Z,27.25
2019-01-31T06:33:45.233Z,32.63
2019-01-31T06:36:14.505Z,49.38
2019-01-31T06:38:43.841Z,28.12
2019-01-31T06:41:18.828Z,45.80
2019-01-31T06:43:43.970Z,33.08
2019-01-31T06:46:13.161Z,38.38
2019-01-31T06:48:42.356Z,31.75
2019-01-31T06:51:11.557Z,35.35
2019-01-31T06:53:40.779Z,33.50
2019-01-31T06:56:10.080Z,33.58
2019-01-31T06:58:41.205Z,41.80
2019-01-31T07:01:10.376Z,44.65
2019-01-31T07:03:39.537Z,34.80
2019-01-31T07:06:08.830Z,37.05
2019-01-31T07:08:37.995Z,41.25
2019-01-31T07:11:07.252Z,46.85
2019-01-31T07:13:36.869Z,56.25
2019-01-31T07:16:06.132Z,52.00
2019-01-31T07:18:35.402Z,61.10
2019-01-31T07:21:04.797Z,42.83
2019-01-31T07:23:34.036Z,55.35
2019-01-31T07:26:03.291Z,72.30
2019-01-31T07:28:32.520Z,86.25
2019-01-31T07:31:01.716Z,51.28
2019-01-31T07:33:30.996Z,48.90
2019-01-31T07:36:00.213Z,41.37
2019-01-31T07:38:29.459Z,106.92
2019-01-31T07:40:58.644Z,52.03
2019-01-31T07:43:28.012Z,54.73
2019-01-31T07:45:57.269Z,38.88
2019-01-31T07:48:26.736Z,44.63
2019-01-31T07:50:56.004Z,40.55
2019-01-31T07:53:25.193Z,35.20
2019-01-31T07:55:54.380Z,24.63
2019-01-31T07:58:23.779Z,31.05
2019-01-31T08:00:53.061Z,32.65
2019-01-31T08:03:22.387Z,31.60
2019-01-31T08:05:51.705Z,36.70
2019-01-31T08:08:21.036Z,37.05
2019-01-31T08:10:50.283Z,39.65
2019-01-31T08:13:19.779Z,30.90
2019-01-31T08:15:48.990Z,31.35
2019-01-31T08:18:18.246Z,29.70
2019-01-31T08:20:47.550Z,40.25
2019-01-31T08:23:16.818Z,35.63
2019-01-31T08:25:46.121Z,34.23
2019-01-31T08:28:15.894Z,31.33
2019-01-31T08:30:45.233Z,30.52
2019-01-31T08:33:14.557Z,30.52
2019-01-31T08:35:43.836Z,35.70
2019-01-31T08:38:13.095Z,35.35
2019-01-31T08:40:42.279Z,32.33
2019-01-31T08:43:11.651Z,30.12
2019-01-31T08:45:40.919Z,35.68
2019-01-31T08:48:10.184Z,39.92
2019-01-31T08:50:39.501Z,30.10
2019-01-31T08:53:08.843Z,37.85
2019-01-31T08:55:38.122Z,34.30
2019-01-31T08:58:07.531Z,34.33
2019-01-31T09:00:37.166Z,31.62
2019-01-31T09:03:06.525Z,32.63
2019-01-31T09:05:35.893Z,34.27
2019-01-31T09:08:05.766Z,39.40
2019-01-31T09:10:37.342Z,29.40
2019-01-31T09:13:09.193Z,34.80
2019-01-31T09:15:38.453Z,31.17
2019-01-31T09:18:08.624Z,27.98
2019-01-31T09:20:47.917Z,31.52
2019-01-31T09:23:32.056Z,32.73
2019-01-31T09:26:51.452Z,40.45
2019-01-31T09:29:58.913Z,32.35
2019-01-31T09:33:15.231Z,27.70
2019-01-31T09:36:15.794Z,26.05
2019-01-31T09:39:18.959Z,28.30
2019-01-31T09:42:26.759Z,27.45
2019-01-31T09:45:34.520Z,29.77
2019-01-31T09:48:19.848Z,26.40
2019-01-31T09:51:15.899Z,25.80
2019-01-31T09:53:53.749Z,26.40
2019-01-31T09:57:16.461Z,25.02
2019-01-31T10:00:13.598Z,25.40
2019-01-31T10:06:54.468Z,16.75
2019-01-31T10:10:13.256Z,19.45
2019-01-31T10:13:20.447Z,22.20
2019-01-31T10:16:13.684Z,25.20
2019-01-31T10:19:29.041Z,28.52
2019-01-31T10:22:30.608Z,20.08
2019-01-31T10:25:55.979Z,26.75
2019-01-31T10:28:56.011Z,27.48
2019-01-31T10:32:09.360Z,33.33
2019-01-31T10:35:04.494Z,44.60
2019-01-31T10:38:04.820Z,26.90
2019-01-31T10:41:18.296Z,28.75
2019-01-31T10:44:26.199Z,27.95
2019-01-31T10:47:27.971Z,38.30
2019-01-31T10:50:42.722Z,31.30
2019-01-31T10:53:49.127Z,33.00
2019-01-31T10:57:11.815Z,28.32
2019-01-31T11:00:16.316Z,28.52
2019-01-31T11:03:18.861Z,28.38
2019-01-31T11:06:21.457Z,21.37
2019-01-31T11:09:17.812Z,34.55
2019-01-31T11:12:15.274Z,29.80
2019-01-31T11:14:53.592Z,23.83
2019-01-31T11:18:07.421Z,28.77
2019-01-31T11:20:57.793Z,25.60
2019-01-31T11:24:19.059Z,29.55
2019-01-31T11:27:32.347Z,31.33
2019-01-31T11:30:37.768Z,30.25
2019-01-31T11:33:54.307Z,38.33
2019-01-31T11:37:06.139Z,39.92
2019-01-31T11:40:31.593Z,36.13
2019-01-31T11:43:32.805Z,31.33
2019-01-31T11:46:51.570Z,31.25
2019-01-31T11:49:43.449Z,42.08
2019-01-31T11:53:01.332Z,31.27
2019-01-31T11:56:10.124Z,34.88
2019-01-31T11:59:01.540Z,34.38
2019-01-31T12:01:31.377Z,35.88
2019-01-31T12:04:03.629Z,39.85
2019-01-31T12:06:32.888Z,38.02
2019-01-31T12:09:02.140Z,38.17
2019-01-31T12:11:31.521Z,29.87
2019-01-31T12:14:01.162Z,33.20
2019-01-31T12:16:30.337Z,35.20
2019-01-31T12:18:59.614Z,27.62
2019-01-31T12:21:28.813Z,40.12
2019-01-31T12:23:58.076Z,35.65
2019-01-31T12:26:27.321Z,31.40
2019-01-31T12:28:56.677Z,28.57
2019-01-31T12:31:26.002Z,25.60
2019-01-31T12:33:55.200Z,29.35
2019-01-31T12:36:24.510Z,31.95
2019-01-31T12:38:54.948Z,29.52
2019-01-31T12:41:24.557Z,40.23
2019-01-31T12:43:53.947Z,37.45
2019-01-31T12:46:23.463Z,33.38
2019-01-31T12:48:52.714Z,25.90
2019-01-31T12:51:22.455Z,26.93
2019-01-31T12:53:51.901Z,24.85
2019-01-31T12:56:21.068Z,28.12
2019-01-31T12:58:50.427Z,24.27
2019-01-31T13:01:19.637Z,24.12
2019-01-31T13:03:48.894Z,24.25
2019-01-31T13:06:18.086Z,38.23
2019-01-31T13:08:47.315Z,24.75
2019-01-31T13:11:16.565Z,29.20
2019-01-31T13:13:46.530Z,26.90
2019-01-31T13:16:15.959Z,23.50
2019-01-31T13:18:45.216Z,19.37
2019-01-31T13:21:15.371Z,26.00
2019-01-31T13:23:44.636Z,18.02
2019-01-31T13:26:13.881Z,25.62
2019-01-31T13:28:43.149Z,22.62
2019-01-31T13:31:12.401Z,24.98
2019-01-31T13:33:42.073Z,25.45
2019-01-31T13:36:14.529Z,18.00
2019-01-31T13:38:43.696Z,19.30
2019-01-31T13:41:12.868Z,26.93
2019-01-31T13:43:42.339Z,19.35
2019-01-31T13:46:11.630Z,20.08
2019-01-31T13:48:40.909Z,22.05
2019-01-31T13:51:10.511Z,18.67
2019-01-31T13:53:39.766Z,20.02
2019-01-31T13:56:09.882Z,26.73
2019-01-31T13:58:39.240Z,20.48
2019-01-31T14:01:09.001Z,26.33
2019-01-31T14:03:38.254Z,20.55
2019-01-31T14:06:07.622Z,23.87
2019-01-31T14:08:36.801Z,19.80
2019-01-31T14:11:06.015Z,22.52
2019-01-31T14:13:35.581Z,26.65
2019-01-31T14:16:04.927Z,28.27
2019-01-31T14:18:34.180Z,22.25
2019-01-31T14:21:03.453Z,26.57
2019-01-31T14:23:32.643Z,19.45
2019-01-31T14:26:01.961Z,20.15
2019-01-31T14:28:31.420Z,23.05
2019-01-31T14:31:00.583Z,34.03
2019-01-31T14:33:29.910Z,25.55
2019-01-31T14:36:00.762Z,31.50
2019-01-31T14:38:30.054Z,34.78
2019-01-31T14:40:59.295Z,28.05
2019-01-31T14:43:28.645Z,28.90
2019-01-31T14:45:57.879Z,24.47
2019-01-31T14:48:27.178Z,20.75
2019-01-31T14:50:56.669Z,26.45
2019-01-31T14:53:25.855Z,27.80
2019-01-31T14:55:55.551Z,22.48
2019-01-31T14:58:25.145Z,26.50
2019-01-31T15:00:54.453Z,21.95
2019-01-31T15:03:23.709Z,28.00
2019-01-31T15:05:52.906Z,28.87
2019-01-31T15:08:22.066Z,28.98
2019-01-31T15:10:51.258Z,20.27
2019-01-31T15:13:20.599Z,28.10
2019-01-31T15:15:49.863Z,26.05
2019-01-31T15:18:19.044Z,27.40
2019-01-31T15:20:48.325Z,23.10
2019-01-31T15:23:17.515Z,25.55
2019-01-31T15:25:46.732Z,20.82
2019-01-31T15:28:16.043Z,24.25
2019-01-31T15:30:45.392Z,21.42
2019-01-31T15:33:15.102Z,23.27
2019-01-31T15:35:44.657Z,25.62
2019-01-31T15:38:13.919Z,26.93
2019-01-31T15:40:45.860Z,16.87
2019-01-31T15:43:15.355Z,23.30
2019-01-31T15:45:44.594Z,23.15
2019-01-31T15:48:13.851Z,18.35
2019-01-31T15:50:43.593Z,18.40
2019-01-31T15:53:12.865Z,32.35
2019-01-31T15:55:43.279Z,23.12
2019-01-31T15:58:12.551Z,19.82
2019-01-31T16:00:54.207Z,21.25
2019-01-31T16:03:25.058Z,23.52
2019-01-31T16:05:54.716Z,25.57
2019-01-31T16:08:24.257Z,25.00
2019-01-31T16:10:53.610Z,23.32
2019-01-31T16:13:22.870Z,28.10
2019-01-31T16:15:54.029Z,25.97
2019-01-31T16:18:23.324Z,23.25
2019-01-31T16:20:52.980Z,21.77
2019-01-31T16:23:22.246Z,18.17
2019-01-31T16:25:51.447Z,20.52
2019-01-31T16:28:20.700Z,18.95
2019-01-31T16:30:49.998Z,21.68
2019-01-31T16:33:19.554Z,20.88
2019-01-31T16:35:49.943Z,19.17
2019-01-31T16:38:19.127Z,23.55
2019-01-31T16:40:48.536Z,19.98
2019-01-31T16:43:17.881Z,17.20
2019-01-31T16:45:47.060Z,20.95
2019-01-31T16:48:16.530Z,23.98
2019-01-31T16:50:45.884Z,19.85
2019-01-31T16:53:15.211Z,20.90
2019-01-31T16:55:45.095Z,23.50
2019-01-31T16:58:14.368Z,22.15
2019-01-31T17:00:43.774Z,20.70
2019-01-31T17:03:13.351Z,26.30
2019-01-31T17:05:42.856Z,26.35
2019-01-31T17:08:12.193Z,22.73
2019-01-31T17:10:41.495Z,27.27
2019-01-31T17:13:10.689Z,23.32
2019-01-31T17:15:39.884Z,20.27
2019-01-31T17:18:09.187Z,28.75
2019-01-31T17:20:47.848Z,22.22
2019-01-31T17:23:17.134Z,17.55
2019-01-31T17:25:46.320Z,26.17
2019-01-31T17:28:15.509Z,29.57
2019-01-31T17:30:44.794Z,27.77
2019-01-31T17:33:14.144Z,26.87
2019-01-31T17:35:43.467Z,24.80
2019-01-31T17:38:12.768Z,26.62
2019-01-31T17:40:43.016Z,24.32
2019-01-31T17:43:13.498Z,31.33
2019-01-31T17:45:42.776Z,29.00
2019-01-31T17:48:16.134Z,31.50
2019-01-31T17:50:46.130Z,30.43
2019-01-31T17:53:15.325Z,38.13
2019-01-31T17:55:44.595Z,29.07
2019-01-31T17:58:13.944Z,26.33
2019-01-31T18:00:59.501Z,28.47
2019-01-31T18:03:29.012Z,30.27
2019-01-31T18:05:58.664Z,29.52
2019-01-31T18:08:28.134Z,37.25
2019-01-31T18:10:57.408Z,35.30
2019-01-31T18:13:26.692Z,33.20
2019-01-31T18:15:56.065Z,38.98
2019-01-31T18:18:25.420Z,43.78
2019-01-31T18:20:54.748Z,34.10
2019-01-31T18:23:24.047Z,29.75
2019-01-31T18:25:53.558Z,28.27
2019-01-31T18:28:23.168Z,26.52
2019-01-31T18:30:52.499Z,37.58
2019-01-31T18:33:21.886Z,31.82
2019-01-31T18:35:51.064Z,32.78
2019-01-31T18:38:20.320Z,27.80
2019-01-31T18:40:49.871Z,31.15
2019-01-31T18:43:19.747Z,36.10
2019-01-31T18:45:53.432Z,32.75
2019-01-31T18:48:19.890Z,32.73
2019-01-31T18:50:49.264Z,24.77
2019-01-31T18:53:18.643Z,32.63
2019-01-31T18:55:47.921Z,29.60
2019-01-31T18:58:17.203Z,35.60
2019-01-31T19:00:48.826Z,27.48
2019-01-31T19:03:18.423Z,36.75
2019-01-31T19:05:47.933Z,30.10
2019-01-31T19:08:17.248Z,35.78
2019-01-31T19:10:46.613Z,44.80
2019-01-31T19:13:15.876Z,34.90
2019-01-31T19:15:46.487Z,41.77
2019-01-31T19:18:15.965Z,44.08
2019-01-31T19:20:45.322Z,41.25
2019-01-31T19:23:15.026Z,54.35
2019-01-31T19:25:47.160Z,44.38
2019-01-31T19:28:15.964Z,44.10
2019-01-31T19:30:45.247Z,33.95
2019-01-31T19:33:14.564Z,48.38
2019-01-31T19:35:43.991Z,33.08
2019-01-31T19:38:13.292Z,39.75
2019-01-31T19:40:44.686Z,41.42
2019-01-31T19:43:14.030Z,37.50
2019-01-31T19:45:50.967Z,34.35
2019-01-31T19:48:20.331Z,48.20
2019-01-31T19:50:49.612Z,40.63
2019-01-31T19:53:18.842Z,41.08
2019-01-31T19:55:48.199Z,40.00
2019-01-31T19:58:17.458Z,36.38
2019-01-31T20:00:46.759Z,39.30
2019-01-31T20:03:16.070Z,43.48
2019-01-31T20:05:45.632Z,39.67
2019-01-31T20:08:15.019Z,35.88
2019-01-31T20:10:44.319Z,34.18
2019-01-31T20:13:13.671Z,38.35
2019-01-31T20:15:43.653Z,36.88
2019-01-31T20:18:13.016Z,41.70
2019-01-31T20:20:42.982Z,37.35
2019-01-31T20:23:12.920Z,41.23
2019-01-31T20:25:42.231Z,34.78
2019-01-31T20:28:11.514Z,37.00
2019-01-31T20:30:41.098Z,36.10
2019-01-31T20:33:10.313Z,31.12
2019-01-31T20:35:39.820Z,36.58
2019-01-31T20:38:09.250Z,36.23
2019-01-31T20:40:40.540Z,36.65
2019-01-31T20:43:10.183Z,35.58
2019-01-31T20:45:39.514Z,34.95
2019-01-31T20:48:09.626Z,34.80
2019-01-31T20:50:40.988Z,31.93
2019-01-31T20:53:10.466Z,31.37
2019-01-31T20:55:39.999Z,30.15
2019-01-31T20:58:09.278Z,32.73
2019-01-31T21:00:43.734Z,29.98
2019-01-31T21:03:13.515Z,32.30
2019-01-31T21:05:43.413Z,24.30
2019-01-31T21:08:14.181Z,32.05
2019-01-31T21:10:43.390Z,31.05
2019-01-31T21:13:12.916Z,24.43
2019-01-31T21:15:42.562Z,24.82
2019-01-31T21:18:12.043Z,36.13
2019-01-31T21:20:41.874Z,29.23
2019-01-31T21:23:11.932Z,32.23
2019-01-31T21:25:41.115Z,25.97
2019-01-31T21:28:10.467Z,28.27
2019-01-31T21:30:41.516Z,26.23
2019-01-31T21:33:10.920Z,33.45
2019-01-31T21:35:40.231Z,30.43
2019-01-31T21:38:10.022Z,19.82
2019-01-31T21:40:39.989Z,19.10
2019-01-31T21:43:09.343Z,20.08
2019-01-31T21:45:39.186Z,19.23
2019-01-31T21:48:10.100Z,24.63
2019-01-31T21:50:39.287Z,19.95
2019-01-31T21:53:09.114Z,21.30
2019-01-31T21:55:38.501Z,20.85
2019-01-31T21:58:09.073Z,26.50
2019-01-31T22:00:38.510Z,20.40
2019-01-31T22:03:08.553Z,12.60
2019-01-31T22:05:38.001Z,13.28
2019-01-31T22:08:07.691Z,13.25
2019-01-31T22:10:37.023Z,16.20
2019-01-31T22:13:06.799Z,16.67
2019-01-31T22:15:36.702Z,14.78
2019-01-31T22:18:07.177Z,12.15
2019-01-31T22:20:36.661Z,17.20
2019-01-31T22:23:06.216Z,18.10
2019-01-31T22:25:35.643Z,13.70
2019-01-31T22:28:05.904Z,11.35
2019-01-31T22:30:37.231Z,12.33
2019-01-31T22:33:08.250Z,10.58
2019-01-31T22:35:37.603Z,11.63
2019-01-31T22:38:07.200Z,11.75
2019-01-31T22:40:36.575Z,12.13
2019-01-31T22:43:06.752Z,10.48
2019-01-31T22:45:35.967Z,11.53
2019-01-31T22:48:07.403Z,8.15
2019-01-31T22:50:36.697Z,12.50
2019-01-31T22:53:06.669Z,8.03
2019-01-31T22:55:35.866Z,9.33
2019-01-31T22:58:06.452Z,8.28
2019-01-31T23:01:07.222Z,7.20
2019-01-31T23:03:36.634Z,8.38
2019-01-31T23:06:08.240Z,9.30
2019-01-31T23:08:37.516Z,8.40
2019-01-31T23:11:06.840Z,9.65
2019-01-31T23:13:36.172Z,5.78
2019-01-31T23:16:06.099Z,6.90
2019-01-31T23:18:35.334Z,4.78
2019-01-31T23:21:05.519Z,6.85
2019-01-31T23:23:34.784Z,6.33
2019-01-31T23:26:04.758Z,6.25
2019-01-31T23:28:33.935Z,9.10
2019-01-31T23:31:03.314Z,8.20
2019-01-31T23:33:32.553Z,7.00
2019-01-31T23:36:01.808Z,12.25
2019-01-31T23:38:31.103Z,8.65
2019-01-31T23:41:00.459Z,7.50
2019-01-31T23:43:29.627Z,7.10
2019-01-31T23:45:58.834Z,7.90
2019-01-31T23:48:28.175Z,6.17
2019-01-31T23:50:57.425Z,7.28
2019-01-31T23:53:26.712Z,6.55
2019-01-31T23:55:55.967Z,6.35
2019-01-31T23:58:25.209Z,8.68
